createdAt,value
2023-01-23T00:01:11.417Z,13.43
2023-01-23T00:03:17.361Z,13.73
2023-01-23T00:05:22.469Z,12.65
2023-01-23T00:07:27.815Z,12.75
2023-01-23T00:09:36.460Z,12.82
2023-01-23T00:11:41.687Z,12.75
2023-01-23T00:13:46.765Z,12.75
2023-01-23T00:15:52.326Z,13.35
2023-01-23T00:17:58.531Z,13.60
2023-01-23T00:20:04.680Z,12.15
2023-01-23T00:22:09.628Z,11.05
2023-01-23T00:24:16.384Z,11.73
2023-01-23T00:26:27.566Z,12.43
2023-01-23T00:28:32.994Z,11.30
2023-01-23T00:30:39.444Z,11.75
2023-01-23T00:32:44.624Z,12.13
2023-01-23T00:34:50.086Z,11.02
2023-01-23T00:36:55.670Z,11.25
2023-01-23T00:39:01.969Z,10.77
2023-01-23T00:41:08.033Z,10.88
2023-01-23T00:43:15.474Z,11.15
2023-01-23T00:45:21.258Z,11.55
2023-01-23T00:47:26.182Z,10.70
2023-01-23T00:49:32.117Z,11.43
2023-01-23T00:51:37.639Z,11.95
2023-01-23T00:53:43.140Z,10.88
2023-01-23T00:55:48.706Z,10.77
2023-01-23T00:57:54.344Z,10.25
2023-01-23T01:00:01.784Z,10.60
2023-01-23T01:02:07.535Z,10.98
2023-01-23T01:04:13.074Z,10.35
2023-01-23T01:06:19.116Z,11.75
2023-01-23T01:08:24.000Z,11.40
2023-01-23T01:10:31.694Z,11.52
2023-01-23T01:12:36.848Z,10.70
2023-01-23T01:14:41.857Z,13.00
2023-01-23T01:16:49.325Z,11.43
2023-01-23T01:18:54.659Z,11.30
2023-01-23T01:21:00.158Z,10.73
2023-01-23T01:23:06.226Z,10.50
2023-01-23T01:25:12.423Z,11.32
2023-01-23T01:27:17.372Z,11.60
2023-01-23T01:29:22.276Z,10.93
2023-01-23T01:31:27.705Z,10.88
2023-01-23T01:33:36.442Z,11.45
2023-01-23T01:35:43.793Z,11.82
2023-01-23T01:37:49.329Z,12.18
2023-01-23T01:39:54.211Z,13.35
2023-01-23T01:41:59.264Z,13.23
2023-01-23T01:44:04.271Z,13.57
2023-01-23T01:46:32.336Z,12.13
2023-01-23T01:48:50.209Z,11.73
2023-01-23T01:50:56.626Z,12.60
2023-01-23T01:53:01.746Z,13.30
2023-01-23T01:55:09.839Z,12.82
2023-01-23T01:57:19.678Z,11.60
2023-01-23T01:59:28.466Z,13.27
2023-01-23T02:01:34.103Z,12.45
2023-01-23T02:03:46.404Z,12.50
2023-01-23T02:05:53.412Z,13.57
2023-01-23T02:08:05.125Z,13.48
2023-01-23T02:10:13.758Z,12.68
2023-01-23T02:12:21.254Z,11.77
2023-01-23T02:14:26.302Z,12.13
2023-01-23T02:16:40.266Z,12.50
2023-01-23T02:18:53.795Z,12.13
2023-01-23T02:21:02.381Z,11.88
2023-01-23T02:23:16.176Z,11.13
2023-01-23T02:25:29.551Z,11.65
2023-01-23T02:27:37.764Z,11.23
2023-01-23T02:29:48.407Z,10.73
2023-01-23T02:31:56.259Z,10.32
2023-01-23T02:34:03.543Z,10.68
2023-01-23T02:36:11.392Z,10.95
2023-01-23T02:38:16.553Z,10.07
2023-01-23T02:40:22.556Z,10.23
2023-01-23T02:42:28.726Z,10.77
2023-01-23T02:44:36.346Z,9.65
2023-01-23T02:46:42.985Z,8.82
2023-01-23T02:48:48.895Z,9.00
2023-01-23T02:50:54.181Z,10.00
2023-01-23T02:52:59.712Z,9.95
2023-01-23T02:55:06.277Z,9.07
2023-01-23T02:57:11.680Z,9.05
2023-01-23T02:59:30.575Z,9.77
2023-01-23T03:01:39.139Z,9.00
2023-01-23T03:03:44.450Z,9.43
2023-01-23T03:05:50.481Z,8.98
2023-01-23T03:07:55.604Z,8.43
2023-01-23T03:10:01.376Z,8.57
2023-01-23T03:12:07.703Z,8.18
2023-01-23T03:14:16.445Z,7.55
2023-01-23T03:16:21.453Z,7.15
2023-01-23T03:18:31.335Z,8.00
2023-01-23T03:20:41.615Z,7.70
2023-01-23T03:22:46.942Z,7.28
2023-01-23T03:24:52.020Z,7.70
2023-01-23T03:26:57.364Z,7.53
2023-01-23T03:29:28.272Z,7.18
2023-01-23T03:31:34.027Z,7.30
2023-01-23T03:33:43.493Z,7.43
2023-01-23T03:35:49.874Z,7.43
2023-01-23T03:37:54.882Z,6.70
2023-01-23T03:40:12.442Z,6.90
2023-01-23T03:42:15.122Z,7.03
2023-01-23T03:46:27.549Z,7.10
2023-01-23T03:48:32.422Z,6.88
2023-01-23T03:50:42.378Z,7.00
2023-01-23T03:52:48.606Z,6.97
2023-01-23T03:54:53.501Z,6.60
2023-01-23T03:56:58.443Z,6.10
2023-01-23T03:59:23.318Z,6.75
2023-01-23T04:01:28.669Z,6.40
2023-01-23T04:03:34.249Z,6.00
2023-01-23T04:05:41.713Z,6.55
2023-01-23T04:07:47.020Z,6.20
2023-01-23T04:09:52.385Z,6.63
2023-01-23T04:11:57.626Z,6.43
2023-01-23T04:14:03.921Z,6.20
2023-01-23T04:16:10.265Z,6.45
2023-01-23T04:18:15.207Z,6.97
2023-01-23T04:20:21.208Z,7.00
2023-01-23T04:22:28.952Z,6.53
2023-01-23T04:24:34.110Z,6.82
2023-01-23T04:26:39.038Z,6.50
2023-01-23T04:28:44.458Z,6.72
2023-01-23T04:30:50.057Z,6.93
2023-01-23T04:33:01.630Z,6.78
2023-01-23T04:35:07.925Z,6.53
2023-01-23T04:37:15.506Z,8.30
2023-01-23T04:39:23.075Z,7.90
2023-01-23T04:41:31.969Z,8.63
2023-01-23T04:43:45.301Z,7.88
2023-01-23T04:45:53.076Z,8.13
2023-01-23T04:48:30.560Z,7.65
2023-01-23T04:50:36.698Z,7.97
2023-01-23T04:52:41.623Z,7.82
2023-01-23T04:54:49.249Z,7.10
2023-01-23T04:56:54.335Z,7.70
2023-01-23T04:58:59.535Z,8.13
2023-01-23T05:01:05.889Z,7.57
2023-01-23T05:03:12.419Z,8.02
2023-01-23T05:05:22.111Z,7.95
2023-01-23T05:07:29.837Z,8.75
2023-01-23T05:09:53.663Z,8.75
2023-01-23T05:11:59.857Z,9.15
2023-01-23T05:14:07.206Z,8.88
2023-01-23T05:16:12.862Z,8.63
2023-01-23T05:18:37.854Z,8.60
2023-01-23T05:20:42.843Z,8.85
2023-01-23T05:22:55.502Z,9.32
2023-01-23T05:25:12.466Z,9.18
2023-01-23T05:27:17.505Z,9.75
2023-01-23T05:29:26.004Z,10.35
2023-01-23T05:31:39.065Z,9.15
2023-01-23T05:34:07.334Z,10.45
2023-01-23T05:36:18.733Z,10.98
2023-01-23T05:38:23.923Z,10.43
2023-01-23T05:40:31.386Z,9.43
2023-01-23T05:42:52.226Z,10.52
2023-01-23T05:45:18.657Z,11.20
2023-01-23T05:47:23.920Z,9.70
2023-01-23T05:49:29.161Z,11.85
2023-01-23T05:51:35.341Z,10.55
2023-01-23T05:53:40.232Z,10.23
2023-01-23T05:55:48.475Z,10.30
2023-01-23T05:57:54.218Z,10.23
2023-01-23T06:00:20.538Z,10.48
2023-01-23T06:02:49.344Z,11.48
2023-01-23T06:05:24.930Z,10.85
2023-01-23T06:07:38.881Z,10.98
2023-01-23T06:09:46.862Z,12.50
2023-01-23T06:11:54.747Z,11.38
2023-01-23T06:14:00.580Z,10.88
2023-01-23T06:16:06.219Z,10.50
2023-01-23T06:18:11.985Z,10.73
2023-01-23T06:20:19.850Z,11.40
2023-01-23T06:22:24.961Z,10.77
2023-01-23T06:24:39.851Z,9.90
2023-01-23T06:26:44.729Z,10.45
2023-01-23T06:28:52.907Z,11.40
2023-01-23T06:31:04.669Z,12.00
2023-01-23T06:33:21.748Z,11.10
2023-01-23T06:35:27.784Z,12.20
2023-01-23T06:37:33.604Z,12.00
2023-01-23T06:39:38.913Z,12.15
2023-01-23T06:41:45.839Z,11.77
2023-01-23T06:44:00.875Z,13.35
2023-01-23T06:46:07.338Z,11.60
2023-01-23T06:48:12.313Z,12.35
2023-01-23T06:50:20.673Z,11.77
2023-01-23T06:52:25.759Z,11.68
2023-01-23T06:54:31.740Z,11.77
2023-01-23T06:56:40.308Z,11.73
2023-01-23T06:58:48.803Z,12.38
2023-01-23T07:01:10.819Z,11.85
2023-01-23T07:03:41.475Z,11.00
2023-01-23T07:05:46.681Z,12.35
2023-01-23T07:07:51.546Z,11.77
2023-01-23T07:09:56.719Z,12.20
2023-01-23T07:12:03.585Z,11.85
2023-01-23T07:14:10.108Z,11.95
2023-01-23T07:16:19.039Z,12.88
2023-01-23T07:18:25.871Z,12.15
2023-01-23T07:20:31.897Z,12.43
2023-01-23T07:22:38.329Z,11.98
2023-01-23T07:24:43.459Z,12.63
2023-01-23T07:26:48.866Z,12.50
2023-01-23T07:28:54.481Z,12.20
2023-01-23T07:31:01.425Z,12.73
2023-01-23T07:33:09.781Z,11.88
2023-01-23T07:35:15.511Z,11.18
2023-01-23T07:37:21.264Z,12.52
2023-01-23T07:39:27.004Z,11.77
2023-01-23T07:41:32.709Z,12.38
2023-01-23T07:43:41.705Z,11.98
2023-01-23T07:45:47.428Z,11.35
2023-01-23T07:47:53.077Z,12.35
2023-01-23T07:50:00.548Z,12.18
2023-01-23T07:52:07.346Z,11.77
2023-01-23T07:54:13.097Z,13.20
2023-01-23T07:56:19.638Z,11.02
2023-01-23T07:58:24.927Z,10.60
2023-01-23T08:00:30.585Z,10.38
2023-01-23T08:02:37.524Z,10.93
2023-01-23T08:04:43.040Z,9.90
2023-01-23T08:06:50.565Z,9.93
2023-01-23T08:08:55.610Z,10.18
2023-01-23T08:11:00.650Z,10.23
2023-01-23T08:13:05.537Z,9.30
2023-01-23T08:15:13.017Z,9.35
2023-01-23T08:17:18.142Z,9.68
2023-01-23T08:19:25.650Z,9.98
2023-01-23T08:21:30.622Z,8.75
2023-01-23T08:23:39.150Z,8.80
2023-01-23T08:25:50.016Z,8.75
2023-01-23T08:27:56.233Z,8.52
2023-01-23T08:30:01.187Z,8.98
2023-01-23T08:32:06.240Z,8.60
2023-01-23T08:34:11.175Z,8.82
2023-01-23T08:36:17.019Z,8.23
2023-01-23T08:38:22.450Z,8.10
2023-01-23T08:40:30.310Z,8.68
2023-01-23T08:42:35.531Z,9.07
2023-01-23T08:44:40.920Z,9.27
2023-01-23T08:46:45.808Z,8.82
2023-01-23T08:48:50.704Z,8.70
2023-01-23T08:51:02.719Z,8.70
2023-01-23T08:53:08.098Z,9.85
2023-01-23T08:55:15.050Z,9.32
2023-01-23T08:57:22.559Z,9.20
2023-01-23T08:59:28.952Z,9.60
2023-01-23T09:01:33.819Z,8.57
2023-01-23T09:03:38.737Z,8.20
2023-01-23T09:05:43.919Z,9.88
2023-01-23T09:07:49.676Z,9.45
2023-01-23T09:09:55.068Z,9.32
2023-01-23T09:12:00.674Z,9.35
2023-01-23T09:14:08.140Z,9.95
2023-01-23T09:16:14.083Z,8.05
2023-01-23T09:18:18.989Z,9.68
2023-01-23T09:20:26.132Z,8.88
2023-01-23T09:22:31.009Z,9.00
2023-01-23T09:24:36.373Z,7.90
2023-01-23T09:26:43.896Z,8.10
2023-01-23T09:28:48.804Z,8.93
2023-01-23T09:30:56.361Z,9.30
2023-01-23T09:33:01.558Z,8.73
2023-01-23T09:35:07.161Z,8.95
2023-01-23T09:37:12.112Z,9.02
2023-01-23T09:39:18.027Z,9.25
2023-01-23T09:41:28.442Z,9.80
2023-01-23T09:43:44.392Z,8.75
2023-01-23T09:46:03.594Z,8.55
2023-01-23T09:48:23.257Z,8.35
2023-01-23T09:50:33.660Z,8.13
2023-01-23T09:52:46.041Z,8.75
2023-01-23T09:54:55.686Z,8.63
2023-01-23T09:57:05.379Z,8.02
2023-01-23T09:59:20.343Z,8.25
2023-01-23T10:01:32.798Z,9.05
2023-01-23T10:03:37.785Z,8.73
2023-01-23T10:05:59.959Z,8.65
2023-01-23T10:08:22.116Z,8.70
2023-01-23T10:10:55.624Z,8.93
2023-01-23T10:13:09.276Z,8.90
2023-01-23T10:15:28.118Z,8.88
2023-01-23T10:17:44.517Z,8.73
2023-01-23T10:20:20.081Z,8.93
2023-01-23T10:22:37.298Z,8.80
2023-01-23T10:24:52.108Z,8.55
2023-01-23T10:27:01.162Z,8.15
2023-01-23T10:29:16.883Z,8.52
2023-01-23T10:31:36.065Z,8.20
2023-01-23T10:33:51.020Z,8.80
2023-01-23T10:36:01.637Z,8.07
2023-01-23T10:38:21.248Z,8.65
2023-01-23T10:40:41.031Z,8.38
2023-01-23T10:42:46.264Z,8.43
2023-01-23T10:44:53.946Z,8.85
2023-01-23T10:47:03.952Z,7.97
2023-01-23T10:49:11.405Z,8.25
2023-01-23T10:51:37.622Z,9.02
2023-01-23T10:53:43.055Z,8.65
2023-01-23T10:55:49.272Z,8.65
2023-01-23T10:58:02.556Z,7.35
2023-01-23T11:02:32.097Z,7.70
2023-01-23T11:04:42.014Z,8.50
2023-01-23T11:06:47.300Z,9.05
2023-01-23T11:09:00.264Z,9.30
2023-01-23T11:11:25.983Z,9.60
2023-01-23T11:13:33.641Z,9.30
2023-01-23T11:15:43.832Z,9.43
2023-01-23T11:17:49.210Z,9.15
2023-01-23T11:19:59.821Z,8.82
2023-01-23T11:22:07.218Z,8.57
2023-01-23T11:24:27.780Z,8.45
2023-01-23T11:26:40.986Z,8.05
2023-01-23T11:28:52.240Z,8.45
2023-01-23T11:31:13.737Z,8.35
2023-01-23T11:33:37.023Z,8.40
2023-01-23T11:36:09.150Z,8.52
2023-01-23T11:38:27.254Z,9.50
2023-01-23T11:40:38.320Z,8.55
2023-01-23T11:42:45.568Z,8.23
2023-01-23T11:44:51.425Z,8.13
2023-01-23T11:47:35.529Z,7.78
2023-01-23T11:52:26.606Z,8.57
2023-01-23T11:54:57.833Z,8.35
2023-01-23T11:57:14.581Z,7.70
2023-01-23T12:00:02.167Z,8.77
2023-01-23T12:02:41.036Z,8.15
2023-01-23T12:05:11.065Z,8.48
2023-01-23T12:07:24.133Z,7.75
2023-01-23T12:09:38.079Z,7.63
2023-01-23T12:11:58.553Z,7.68
2023-01-23T12:14:16.162Z,7.25
2023-01-23T12:16:31.301Z,6.95
2023-01-23T12:18:50.768Z,6.88
2023-01-23T12:21:06.165Z,7.68
2023-01-23T12:23:29.751Z,6.90
2023-01-23T12:25:39.292Z,7.05
2023-01-23T12:27:46.488Z,7.38
2023-01-23T12:30:29.582Z,7.68
2023-01-23T12:32:49.984Z,6.07
2023-01-23T12:35:13.499Z,7.57
2023-01-23T12:37:38.468Z,7.90
2023-01-23T12:40:03.571Z,6.93
2023-01-23T12:42:15.998Z,6.85
2023-01-23T12:44:30.500Z,5.40
2023-01-23T12:46:46.868Z,6.93
2023-01-23T12:49:01.516Z,7.28
2023-01-23T12:51:14.637Z,7.07
2023-01-23T12:53:22.256Z,7.13
2023-01-23T12:55:38.236Z,6.78
2023-01-23T12:57:59.594Z,7.32
2023-01-23T13:00:33.792Z,7.63
2023-01-23T13:02:48.169Z,7.75
2023-01-23T13:05:09.339Z,6.97
2023-01-23T13:07:31.956Z,7.82
2023-01-23T13:09:52.342Z,5.17
2023-01-23T13:12:12.007Z,7.57
2023-01-23T13:14:32.880Z,7.05
2023-01-23T13:16:50.878Z,6.75
2023-01-23T13:19:10.771Z,6.68
2023-01-23T13:21:28.705Z,6.57
2023-01-23T13:23:35.609Z,6.80
2023-01-23T13:25:38.328Z,7.20
2023-01-23T13:27:52.872Z,6.75
2023-01-23T13:29:59.687Z,6.60
2023-01-23T13:32:25.315Z,7.00
2023-01-23T13:34:42.765Z,6.65
2023-01-23T13:36:49.423Z,6.22
2023-01-23T13:39:31.872Z,7.07
2023-01-23T13:41:37.723Z,6.70
2023-01-23T13:43:55.830Z,6.60
2023-01-23T13:46:01.095Z,6.07
2023-01-23T14:22:25.015Z,8.90
2023-01-23T14:24:43.709Z,9.18
2023-01-23T14:26:53.941Z,7.60
2023-01-23T14:29:01.650Z,7.40
2023-01-23T14:31:09.991Z,7.60
2023-01-23T14:33:20.934Z,6.93
2023-01-23T14:35:28.976Z,6.70
2023-01-23T14:37:38.830Z,7.25
2023-01-23T14:39:53.655Z,8.13
2023-01-23T14:42:05.393Z,7.78
2023-01-23T14:44:21.909Z,8.07
2023-01-23T14:46:40.143Z,7.55
2023-01-23T14:48:53.718Z,7.60
2023-01-23T14:51:20.080Z,6.82
2023-01-23T14:53:25.495Z,7.43
2023-01-23T14:55:32.880Z,9.25
2023-01-23T14:57:39.183Z,7.97
2023-01-23T14:59:46.934Z,7.63
2023-01-23T15:01:57.420Z,8.57
2023-01-23T15:04:10.049Z,9.05
2023-01-23T15:06:21.672Z,10.98
2023-01-23T15:08:34.384Z,10.57
2023-01-23T15:10:51.482Z,11.27
2023-01-23T15:13:02.441Z,10.93
2023-01-23T15:15:09.483Z,11.18
2023-01-23T15:17:20.978Z,11.45
2023-01-23T15:19:29.607Z,10.77
2023-01-23T15:21:40.033Z,11.63
2023-01-23T15:24:19.444Z,11.80
2023-01-23T15:26:35.848Z,11.23
2023-01-23T15:28:51.499Z,11.38
2023-01-23T15:30:56.739Z,12.75
2023-01-23T15:33:07.294Z,11.75
2023-01-23T15:35:20.281Z,13.15
2023-01-23T15:39:38.009Z,11.85
2023-01-23T15:41:47.068Z,12.90
2023-01-23T15:43:52.321Z,13.30
2023-01-23T15:45:57.528Z,14.15
2023-01-23T15:48:03.071Z,14.00
2023-01-23T15:50:09.459Z,13.02
2023-01-23T15:52:25.128Z,12.98
2023-01-23T15:54:36.190Z,14.73
2023-01-23T15:56:48.839Z,14.93
2023-01-23T15:59:00.665Z,14.10
2023-01-23T16:01:05.837Z,15.32
2023-01-23T16:03:14.587Z,14.07
2023-01-23T16:05:19.757Z,15.10
2023-01-23T16:07:34.425Z,15.43
2023-01-23T16:09:42.252Z,15.30
2023-01-23T16:11:47.336Z,14.80
2023-01-23T16:13:52.235Z,15.13
2023-01-23T16:15:57.174Z,15.60
2023-01-23T16:18:04.975Z,15.73
2023-01-23T16:20:15.820Z,14.98
2023-01-23T16:22:29.694Z,16.02
2023-01-23T16:24:39.383Z,15.88
2023-01-23T16:26:44.716Z,15.32
2023-01-23T16:28:49.942Z,16.05
2023-01-23T16:30:55.720Z,16.73
2023-01-23T16:33:00.707Z,14.50
2023-01-23T16:35:06.080Z,14.40
2023-01-23T16:37:17.823Z,16.70
2023-01-23T16:39:29.814Z,16.05
2023-01-23T16:41:34.665Z,16.35
2023-01-23T16:43:40.310Z,16.92
2023-01-23T16:45:45.209Z,16.30
2023-01-23T16:47:50.214Z,15.77
2023-01-23T16:49:55.052Z,17.10
2023-01-23T16:52:03.145Z,16.65
2023-01-23T16:54:18.329Z,16.40
2023-01-23T16:56:33.065Z,16.73
2023-01-23T16:58:42.363Z,17.33
2023-01-23T17:00:47.955Z,15.85
2023-01-23T17:02:57.405Z,17.38
2023-01-23T17:05:02.733Z,17.95
2023-01-23T17:07:15.102Z,18.73
2023-01-23T17:09:20.140Z,15.93
2023-01-23T17:11:33.732Z,18.27
2023-01-23T17:13:38.919Z,16.63
2023-01-23T17:15:44.348Z,18.27
2023-01-23T17:17:51.284Z,17.85
2023-01-23T17:19:57.572Z,16.52
2023-01-23T17:22:05.270Z,17.70
2023-01-23T17:24:17.102Z,17.38
2023-01-23T17:26:23.883Z,17.88
2023-01-23T17:28:31.729Z,18.15
2023-01-23T17:30:36.789Z,17.77
2023-01-23T17:32:41.751Z,18.08
2023-01-23T17:34:50.145Z,16.63
2023-01-23T17:36:57.060Z,18.17
2023-01-23T17:39:02.593Z,16.40
2023-01-23T17:41:11.787Z,16.98
2023-01-23T17:43:17.334Z,18.98
2023-01-23T17:45:27.491Z,17.17
2023-01-23T17:47:34.793Z,16.63
2023-01-23T17:49:40.067Z,18.42
2023-01-23T17:51:45.403Z,17.20
2023-01-23T17:53:51.070Z,17.38
2023-01-23T17:55:56.278Z,16.77
2023-01-23T17:58:02.099Z,15.88
2023-01-23T18:00:08.894Z,13.32
2023-01-23T18:02:30.944Z,14.07
2023-01-23T18:04:36.031Z,14.23
2023-01-23T18:06:41.004Z,13.65
2023-01-23T18:08:46.004Z,14.82
2023-01-23T18:10:56.674Z,13.90
2023-01-23T18:13:14.413Z,13.32
2023-01-23T18:15:29.179Z,13.88
2023-01-23T18:17:44.809Z,13.38
2023-01-23T18:19:51.625Z,13.45
2023-01-23T18:21:59.424Z,14.43
2023-01-23T18:24:05.328Z,15.02
2023-01-23T18:26:27.504Z,14.10
2023-01-23T18:28:42.752Z,13.82
2023-01-23T18:30:58.200Z,12.43
2023-01-23T18:33:23.411Z,13.43
2023-01-23T18:35:39.634Z,12.57
2023-01-23T18:37:54.409Z,13.10
2023-01-23T18:40:06.045Z,12.50
2023-01-23T18:42:23.798Z,13.27
2023-01-23T18:44:30.173Z,13.57
2023-01-23T18:46:35.813Z,13.98
2023-01-23T18:48:45.789Z,14.55
2023-01-23T18:51:08.670Z,12.50
2023-01-23T18:53:28.434Z,13.18
2023-01-23T18:55:40.998Z,12.70
2023-01-23T18:58:08.923Z,12.48
2023-01-23T19:00:20.887Z,13.18
2023-01-23T19:02:34.785Z,12.77
2023-01-23T19:04:53.877Z,13.32
2023-01-23T19:07:00.423Z,11.90
2023-01-23T19:09:06.194Z,12.57
2023-01-23T19:11:26.439Z,11.60
2023-01-23T19:13:43.645Z,11.73
2023-01-23T19:16:01.173Z,12.00
2023-01-23T19:18:38.612Z,12.15
2023-01-23T19:20:53.376Z,12.38
2023-01-23T19:23:13.430Z,11.05
2023-01-23T19:25:20.862Z,10.18
2023-01-23T19:27:28.358Z,11.73
2023-01-23T19:29:34.290Z,11.73
2023-01-23T19:31:43.713Z,11.48
2023-01-23T19:33:50.294Z,11.65
2023-01-23T19:35:58.014Z,11.32
2023-01-23T19:38:02.909Z,11.05
2023-01-23T19:40:11.002Z,11.07
2023-01-23T19:42:17.249Z,11.02
2023-01-23T19:44:24.899Z,10.48
2023-01-23T19:46:33.530Z,11.85
2023-01-23T19:48:38.419Z,11.35
2023-01-23T19:50:44.105Z,12.15
2023-01-23T19:52:52.559Z,11.50
2023-01-23T19:54:57.426Z,11.50
2023-01-23T19:57:02.648Z,10.30
2023-01-23T19:59:08.399Z,11.65
2023-01-23T20:01:25.722Z,10.07
2023-01-23T20:03:30.873Z,10.60
2023-01-23T20:05:35.918Z,10.68
2023-01-23T20:07:41.400Z,9.95
2023-01-23T20:09:49.665Z,12.75
2023-01-23T20:11:54.876Z,11.60
2023-01-23T20:14:00.328Z,10.77
2023-01-23T20:16:11.453Z,11.43
2023-01-23T20:18:16.312Z,11.57
2023-01-23T20:20:22.163Z,10.80
2023-01-23T20:22:32.097Z,10.32
2023-01-23T20:24:37.127Z,11.15
2023-01-23T20:26:45.453Z,11.27
2023-01-23T20:28:50.530Z,10.98
2023-01-23T20:30:55.533Z,11.43
2023-01-23T20:33:00.874Z,10.85
2023-01-23T20:35:06.311Z,11.18
2023-01-23T20:37:11.267Z,11.50
2023-01-23T20:39:16.715Z,11.40
2023-01-23T20:41:23.647Z,10.57
2023-01-23T20:43:31.126Z,10.57
2023-01-23T20:45:36.043Z,10.57
2023-01-23T20:47:41.348Z,10.73
2023-01-23T20:49:46.427Z,10.10
2023-01-23T20:51:51.329Z,9.93
2023-01-23T20:53:53.711Z,12.38
2023-01-23T20:58:18.303Z,11.98
2023-01-23T21:00:26.023Z,11.07
2023-01-23T21:02:34.045Z,11.82
2023-01-23T21:04:40.536Z,11.05
2023-01-23T21:06:45.445Z,11.60
2023-01-23T21:08:50.531Z,11.45
2023-01-23T21:10:55.515Z,11.93
2023-01-23T21:13:00.412Z,12.02
2023-01-23T21:15:05.303Z,11.85
2023-01-23T21:17:12.908Z,12.43
2023-01-23T21:19:18.455Z,12.20
2023-01-23T21:21:25.568Z,11.50
2023-01-23T21:23:30.603Z,11.57
2023-01-23T21:25:38.610Z,12.20
2023-01-23T21:27:43.503Z,12.52
2023-01-23T21:29:48.724Z,12.30
2023-01-23T21:31:53.710Z,12.05
2023-01-23T21:34:02.744Z,12.07
2023-01-23T21:36:08.961Z,11.40
2023-01-23T21:38:13.889Z,11.48
2023-01-23T21:40:19.243Z,12.13
2023-01-23T21:42:24.154Z,11.88
2023-01-23T21:44:29.048Z,12.25
2023-01-23T21:46:33.998Z,12.13
2023-01-23T21:48:39.677Z,11.57
2023-01-23T21:50:47.175Z,11.43
2023-01-23T21:52:52.163Z,11.05
2023-01-23T21:54:57.062Z,11.13
2023-01-23T21:57:01.951Z,11.55
2023-01-23T21:59:07.039Z,10.57
2023-01-23T22:01:28.782Z,11.13
2023-01-23T22:03:37.123Z,11.77
2023-01-23T22:05:42.044Z,11.73
2023-01-23T22:07:50.222Z,11.35
2023-01-23T22:09:55.803Z,11.77
2023-01-23T22:12:00.745Z,12.35
2023-01-23T22:14:06.675Z,12.27
2023-01-23T22:16:14.213Z,11.57
2023-01-23T22:18:19.207Z,13.73
2023-01-23T22:20:24.092Z,12.27
2023-01-23T22:22:29.012Z,13.40
2023-01-23T22:24:36.498Z,11.48
2023-01-23T22:26:41.409Z,11.85
2023-01-23T22:28:46.604Z,11.95
2023-01-23T22:30:52.144Z,12.45
2023-01-23T22:32:57.038Z,11.60
2023-01-23T22:35:01.972Z,11.45
2023-01-23T22:37:07.928Z,12.98
2023-01-23T22:39:16.478Z,12.32
2023-01-23T22:41:24.476Z,11.73
2023-01-23T22:43:30.023Z,11.43
2023-01-23T22:45:35.082Z,11.55
2023-01-23T22:47:40.031Z,12.63
2023-01-23T22:49:45.528Z,11.95
2023-01-23T22:51:51.541Z,12.00
2023-01-23T22:53:58.545Z,12.27
2023-01-23T22:56:08.739Z,11.85
2023-01-23T22:58:16.253Z,11.82
2023-01-23T23:00:22.032Z,12.43
2023-01-23T23:02:27.536Z,11.27
2023-01-23T23:04:32.548Z,10.23
2023-01-23T23:06:37.490Z,11.70
2023-01-23T23:08:44.660Z,10.55
2023-01-23T23:13:06.798Z,11.48
2023-01-23T23:15:17.712Z,10.88
2023-01-23T23:17:22.701Z,11.43
2023-01-23T23:19:28.171Z,10.38
2023-01-23T23:21:37.098Z,11.02
2023-01-23T23:23:42.504Z,11.25
2023-01-23T23:25:49.588Z,10.52
2023-01-23T23:27:54.461Z,10.82
2023-01-23T23:29:59.336Z,10.82
2023-01-23T23:32:07.762Z,12.00
2023-01-23T23:34:12.834Z,11.48
2023-01-23T23:36:17.756Z,11.60
2023-01-23T23:38:23.226Z,11.30
2023-01-23T23:40:28.461Z,12.05
2023-01-23T23:42:33.514Z,11.68
2023-01-23T23:44:38.467Z,11.15
2023-01-23T23:46:44.248Z,10.40
2023-01-23T23:48:51.740Z,11.40
2023-01-23T23:50:56.967Z,11.32
2023-01-23T23:53:02.176Z,12.10
2023-01-23T23:55:08.319Z,11.88
2023-01-23T23:57:13.751Z,11.75
2023-01-23T23:59:20.114Z,12.05
